createdAt,value
2018-12-05T00:01:05.467Z,99.90
2018-12-05T00:05:12.079Z,99.90
2018-12-05T00:07:15.234Z,99.90
2018-12-05T00:11:21.269Z,99.90
2018-12-05T00:13:24.406Z,98.30
2018-12-05T00:15:27.690Z,99.20
2018-12-05T00:17:31.614Z,99.30
2018-12-05T00:19:35.149Z,97.80
2018-12-05T00:21:38.566Z,99.60
2018-12-05T00:23:42.290Z,99.90
2018-12-05T00:25:46.473Z,99.80
2018-12-05T00:27:49.695Z,99.90
2018-12-05T00:31:57.708Z,99.90
2018-12-05T00:34:01.363Z,99.90
2018-12-05T00:38:08.138Z,99.90
2018-12-05T00:40:11.526Z,99.90
2018-12-05T00:42:14.673Z,99.90
2018-12-05T00:44:17.830Z,99.90
2018-12-05T00:46:22.414Z,99.90
2018-12-05T00:48:25.655Z,99.90
2018-12-05T00:50:28.835Z,99.90
2018-12-05T00:56:39.032Z,99.90
2018-12-05T00:58:42.254Z,99.80
2018-12-05T01:00:45.483Z,99.90
2018-12-05T01:02:48.790Z,99.30
2018-12-05T01:06:55.034Z,99.70
2018-12-05T01:08:58.369Z,99.50
2018-12-05T01:11:02.059Z,99.70
2018-12-05T01:19:31.976Z,99.90
2018-12-05T01:21:35.527Z,99.70
2018-12-05T01:23:38.797Z,99.90
2018-12-05T01:27:46.395Z,99.90
2018-12-05T01:29:49.808Z,99.90
2018-12-05T01:31:59.590Z,99.90
2018-12-05T01:34:07.465Z,99.90
2018-12-05T01:36:15.325Z,99.90
2018-12-05T01:40:25.466Z,99.90
2018-12-05T01:42:28.611Z,99.90
2018-12-05T01:44:32.395Z,99.90
2018-12-05T01:46:36.007Z,99.90
2018-12-05T01:48:39.738Z,99.90
2018-12-05T01:50:43.083Z,99.90
2018-12-05T01:52:46.316Z,99.90
2018-12-05T01:54:49.461Z,99.90
2018-12-05T01:56:52.744Z,99.90
2018-12-05T01:58:56.210Z,99.90
2018-12-05T02:01:00.082Z,99.90
2018-12-05T02:03:03.853Z,99.90
2018-12-05T02:05:07.616Z,99.90
2018-12-05T02:07:10.814Z,99.90
2018-12-05T02:11:17.172Z,99.90
2018-12-05T02:13:20.398Z,99.90
2018-12-05T02:15:23.601Z,99.90
2018-12-05T02:17:26.757Z,99.90
2018-12-05T02:19:29.998Z,99.90
2018-12-05T02:21:33.855Z,99.90
2018-12-05T02:23:37.102Z,99.90
2018-12-05T02:27:43.727Z,99.90
2018-12-05T02:29:53.170Z,99.90
2018-12-05T02:31:56.311Z,99.90
2018-12-05T02:33:59.430Z,99.90
2018-12-05T02:38:06.330Z,99.90
2018-12-05T02:40:09.915Z,99.90
2018-12-05T02:42:13.335Z,99.90
2018-12-05T02:44:16.471Z,99.90
2018-12-05T02:46:19.595Z,99.90
2018-12-05T02:48:22.742Z,99.90
2018-12-05T02:50:26.296Z,99.90
2018-12-05T02:52:29.426Z,99.90
2018-12-05T02:58:38.864Z,99.90
2018-12-05T03:00:42.538Z,99.90
2018-12-05T03:02:45.695Z,99.90
2018-12-05T03:04:49.033Z,99.90
2018-12-05T03:06:52.385Z,99.90
2018-12-05T03:10:58.812Z,99.90
2018-12-05T03:13:02.500Z,99.90
2018-12-05T03:15:06.178Z,99.90
2018-12-05T03:17:09.439Z,99.90
2018-12-05T03:19:13.003Z,99.90
2018-12-05T03:21:16.526Z,99.90
2018-12-05T03:23:19.661Z,99.90
2018-12-05T03:25:22.811Z,99.90
2018-12-05T03:27:26.038Z,99.90
2018-12-05T03:29:29.181Z,99.90
2018-12-05T03:31:32.722Z,99.90
2018-12-05T03:35:39.246Z,99.90
2018-12-05T03:37:42.487Z,99.90
2018-12-05T03:39:45.667Z,98.50
2018-12-05T03:41:49.083Z,99.90
2018-12-05T03:45:55.119Z,99.90
2018-12-05T03:56:12.125Z,99.90
2018-12-05T04:02:21.520Z,99.90
2018-12-05T04:04:24.670Z,99.90
2018-12-05T04:06:27.884Z,99.90
2018-12-05T04:12:40.675Z,99.90
2018-12-05T04:14:42.854Z,99.90
2018-12-05T04:16:46.028Z,99.90
2018-12-05T04:18:49.145Z,99.90
2018-12-05T04:20:52.341Z,99.90
2018-12-05T04:22:55.627Z,99.90
2018-12-05T04:24:58.779Z,99.90
2018-12-05T04:27:02.295Z,99.90
2018-12-05T04:29:05.895Z,99.90
2018-12-05T04:31:09.163Z,99.90
2018-12-05T04:33:12.428Z,99.90
2018-12-05T04:37:18.539Z,99.90
2018-12-05T04:39:21.795Z,99.90
2018-12-05T04:41:24.943Z,99.90
2018-12-05T04:43:28.338Z,99.90
2018-12-05T04:45:31.645Z,99.90
2018-12-05T04:47:35.197Z,99.90
2018-12-05T04:49:38.548Z,99.90
2018-12-05T04:51:41.799Z,99.90
2018-12-05T04:55:48.052Z,99.90
2018-12-05T04:57:51.203Z,99.90
2018-12-05T05:01:57.316Z,99.90
2018-12-05T05:04:01.838Z,99.90
2018-12-05T05:06:05.663Z,99.90
2018-12-05T05:10:14.268Z,99.90
2018-12-05T05:12:17.403Z,99.90
2018-12-05T05:14:20.684Z,99.90
2018-12-05T05:16:23.835Z,99.90
2018-12-05T05:20:29.884Z,99.90
2018-12-05T05:22:33.209Z,99.90
2018-12-05T05:24:36.898Z,99.90
2018-12-05T05:26:40.214Z,99.90
2018-12-05T05:28:43.429Z,99.90
2018-12-05T05:30:46.660Z,99.90
2018-12-05T05:32:52.843Z,99.90
2018-12-05T05:34:56.619Z,99.90
2018-12-05T05:36:59.771Z,99.90
2018-12-05T05:39:03.130Z,99.90
2018-12-05T05:41:06.682Z,99.90
2018-12-05T05:43:10.110Z,99.90
2018-12-05T05:45:13.655Z,99.90
2018-12-05T05:47:16.828Z,99.90
2018-12-05T05:49:20.031Z,99.90
2018-12-05T05:51:23.155Z,99.90
2018-12-05T05:53:26.302Z,99.90
2018-12-05T05:55:29.499Z,99.90
2018-12-05T05:57:32.651Z,99.90
2018-12-05T05:59:36.475Z,99.90
2018-12-05T06:01:39.703Z,99.90
2018-12-05T06:03:43.151Z,99.90
2018-12-05T06:05:47.715Z,99.90
2018-12-05T06:07:50.879Z,99.90
2018-12-05T06:09:54.086Z,99.90
2018-12-05T06:11:57.223Z,99.90
2018-12-05T06:14:00.339Z,99.90
2018-12-05T06:16:03.560Z,99.90
2018-12-05T06:18:08.078Z,99.90
2018-12-05T06:20:11.318Z,99.90
2018-12-05T06:22:14.553Z,99.70
2018-12-05T06:24:17.686Z,99.90
2018-12-05T06:26:21.110Z,99.90
2018-12-05T06:28:24.326Z,99.90
2018-12-05T06:30:27.843Z,99.90
2018-12-05T06:32:30.970Z,99.90
2018-12-05T06:34:34.663Z,99.90
2018-12-05T06:36:38.627Z,99.90
2018-12-05T06:38:41.874Z,99.40
2018-12-05T06:40:45.210Z,99.90
2018-12-05T06:44:51.265Z,99.90
2018-12-05T06:46:54.580Z,99.90
2018-12-05T06:48:58.088Z,99.90
2018-12-05T06:51:01.304Z,99.90
2018-12-05T06:53:05.449Z,99.90
2018-12-05T06:55:08.859Z,99.90
2018-12-05T06:57:12.486Z,99.90
2018-12-05T06:59:15.746Z,99.90
2018-12-05T07:01:18.970Z,99.90
2018-12-05T07:03:22.142Z,99.90
2018-12-05T07:05:25.342Z,99.90
2018-12-05T07:07:29.631Z,99.90
2018-12-05T07:11:36.451Z,99.90
2018-12-05T07:13:39.972Z,99.90
2018-12-05T07:15:43.219Z,99.90
2018-12-05T07:17:46.732Z,99.90
2018-12-05T07:19:49.886Z,99.90
2018-12-05T07:21:53.012Z,99.90
2018-12-05T07:23:56.194Z,99.90
2018-12-05T07:25:59.339Z,99.90
2018-12-05T07:28:02.999Z,99.90
2018-12-05T07:30:07.843Z,99.90
2018-12-05T07:32:11.232Z,99.90
2018-12-05T07:34:14.367Z,99.90
2018-12-05T07:36:17.802Z,99.90
2018-12-05T07:38:21.479Z,99.90
2018-12-05T07:40:24.594Z,98.70
2018-12-05T07:42:27.717Z,99.90
2018-12-05T07:44:30.938Z,99.70
2018-12-05T07:46:34.059Z,99.60
2018-12-05T07:48:39.412Z,99.50
2018-12-05T07:50:42.795Z,99.30
2018-12-05T07:52:46.048Z,99.90
2018-12-05T07:56:52.506Z,99.90
2018-12-05T07:58:55.800Z,99.40
2018-12-05T08:00:59.017Z,98.80
2018-12-05T08:03:02.245Z,99.00
2018-12-05T08:05:06.451Z,99.10
2018-12-05T08:07:10.059Z,98.40
2018-12-05T08:11:16.714Z,98.20
2018-12-05T08:13:19.879Z,98.20
2018-12-05T08:15:23.042Z,99.30
2018-12-05T08:17:26.162Z,97.70
2018-12-05T08:19:29.454Z,98.40
2018-12-05T08:23:35.775Z,97.60
2018-12-05T08:25:40.869Z,97.80
2018-12-05T08:27:44.450Z,96.50
2018-12-05T08:29:47.911Z,99.90
2018-12-05T08:31:51.040Z,97.00
2018-12-05T08:33:54.171Z,99.30
2018-12-05T08:35:57.375Z,96.50
2018-12-05T08:38:00.670Z,96.70
2018-12-05T08:40:05.533Z,96.50
2018-12-05T08:42:09.711Z,96.40
2018-12-05T08:44:12.991Z,96.90
2018-12-05T08:46:16.309Z,99.90
2018-12-05T08:48:19.411Z,97.00
2018-12-05T08:50:24.754Z,96.20
2018-12-05T08:52:27.991Z,95.70
2018-12-05T08:54:39.488Z,95.40
2018-12-05T08:56:43.087Z,94.00
2018-12-05T08:58:46.691Z,98.70
2018-12-05T09:00:49.958Z,95.60
2018-12-05T09:04:55.994Z,94.80
2018-12-05T09:06:59.206Z,95.20
2018-12-05T09:09:02.499Z,95.60
2018-12-05T09:11:06.573Z,95.90
2018-12-05T09:13:10.347Z,96.20
2018-12-05T09:17:16.619Z,94.30
2018-12-05T09:19:19.739Z,96.10
2018-12-05T09:21:23.169Z,95.80
2018-12-05T09:25:29.451Z,95.50
2018-12-05T09:27:32.598Z,95.40
2018-12-05T09:29:35.749Z,95.20
2018-12-05T09:31:39.738Z,94.40
2018-12-05T09:33:43.351Z,93.00
2018-12-05T09:35:46.626Z,92.40
2018-12-05T09:37:49.799Z,91.20
2018-12-05T09:39:52.962Z,92.00
2018-12-05T09:41:56.165Z,91.20
2018-12-05T09:43:59.363Z,90.80
2018-12-05T09:46:02.484Z,89.20
2018-12-05T09:48:05.723Z,80.30
2018-12-05T09:50:40.830Z,74.10
2018-12-05T09:52:45.294Z,66.80
2018-12-05T09:54:48.609Z,64.50
2018-12-05T09:56:51.831Z,65.40
2018-12-05T09:58:54.975Z,69.40
2018-12-05T10:00:58.152Z,64.60
2018-12-05T10:03:01.483Z,70.60
2018-12-05T10:05:05.611Z,74.60
2018-12-05T10:07:09.722Z,75.00
2018-12-05T10:09:13.515Z,78.30
2018-12-05T10:11:17.223Z,89.40
2018-12-05T10:13:20.495Z,87.70
2018-12-05T10:15:23.706Z,86.90
2018-12-05T10:17:26.911Z,81.80
2018-12-05T10:19:30.440Z,83.40
2018-12-05T10:21:33.727Z,84.50
2018-12-05T10:23:37.645Z,84.60
2018-12-05T10:25:41.624Z,91.30
2018-12-05T10:27:45.175Z,84.10
2018-12-05T10:29:48.502Z,90.50
2018-12-05T10:31:51.643Z,83.50
2018-12-05T10:33:54.976Z,85.60
2018-12-05T10:35:58.194Z,86.10
2018-12-05T10:38:01.375Z,85.00
2018-12-05T10:40:05.895Z,84.60
2018-12-05T10:42:10.198Z,83.10
2018-12-05T10:44:14.282Z,91.10
2018-12-05T10:46:17.831Z,83.40
2018-12-05T10:48:20.971Z,90.80
2018-12-05T10:50:24.203Z,89.60
2018-12-05T10:54:30.427Z,90.20
2018-12-05T10:56:33.787Z,90.50
2018-12-05T10:58:37.217Z,91.00
2018-12-05T11:00:46.758Z,90.80
2018-12-05T11:02:56.615Z,90.70
2018-12-05T11:05:05.559Z,92.30
2018-12-05T11:07:14.542Z,90.50
2018-12-05T11:09:23.215Z,93.40
2018-12-05T11:11:32.478Z,90.50
2018-12-05T11:13:41.390Z,90.50
2018-12-05T11:15:51.350Z,91.30
2018-12-05T11:17:59.983Z,88.90
2018-12-05T11:20:09.474Z,89.90
2018-12-05T11:22:18.526Z,87.20
2018-12-05T11:24:27.188Z,88.00
2018-12-05T11:26:32.958Z,86.50
2018-12-05T11:28:36.461Z,85.20
2018-12-05T11:30:41.500Z,85.70
2018-12-05T11:32:44.886Z,85.50
2018-12-05T11:34:48.139Z,86.90
2018-12-05T11:36:51.356Z,89.20
2018-12-05T11:38:54.575Z,89.30
2018-12-05T11:40:57.735Z,90.00
2018-12-05T11:43:00.883Z,90.40
2018-12-05T11:45:04.925Z,90.70
2018-12-05T11:47:09.363Z,90.80
2018-12-05T11:49:12.892Z,91.40
2018-12-05T11:51:16.503Z,91.80
2018-12-05T11:53:19.951Z,91.00
2018-12-05T11:55:23.119Z,94.60
2018-12-05T11:57:26.566Z,90.90
2018-12-05T11:59:29.817Z,91.00
2018-12-05T12:01:33.036Z,90.30
2018-12-05T12:03:36.184Z,90.00
2018-12-05T12:05:40.594Z,90.00
2018-12-05T12:07:44.508Z,87.80
2018-12-05T12:09:47.879Z,87.10
2018-12-05T12:13:54.479Z,81.40
2018-12-05T12:18:01.247Z,76.70
2018-12-05T12:20:04.612Z,76.00
2018-12-05T12:22:07.859Z,72.20
2018-12-05T12:24:12.537Z,68.30
2018-12-05T12:26:15.961Z,57.90
2018-12-05T12:28:19.667Z,52.80
2018-12-05T12:30:22.914Z,54.80
2018-12-05T12:32:26.067Z,58.20
2018-12-05T12:34:29.214Z,62.00
2018-12-05T12:36:32.427Z,64.30
2018-12-05T12:38:35.795Z,78.10
2018-12-05T12:40:40.115Z,71.10
2018-12-05T12:42:43.859Z,72.70
2018-12-05T12:44:47.107Z,78.50
2018-12-05T12:46:50.475Z,75.60
2018-12-05T12:48:54.011Z,74.50
2018-12-05T12:50:57.264Z,75.10
2018-12-05T12:53:01.314Z,76.40
2018-12-05T12:55:05.233Z,78.40
2018-12-05T12:57:08.863Z,81.30
2018-12-05T12:59:13.207Z,83.30
2018-12-05T13:01:16.767Z,85.30
2018-12-05T13:05:23.067Z,85.60
2018-12-05T13:07:26.219Z,84.80
2018-12-05T13:09:29.519Z,83.10
2018-12-05T13:13:35.845Z,78.20
2018-12-05T13:15:40.351Z,78.30
2018-12-05T13:17:43.907Z,78.40
2018-12-05T13:19:47.710Z,76.40
2018-12-05T13:21:51.140Z,77.20
2018-12-05T13:23:54.296Z,81.00
2018-12-05T13:25:57.442Z,81.40
2018-12-05T13:28:00.579Z,80.00
2018-12-05T13:30:05.328Z,83.20
2018-12-05T13:32:08.551Z,84.80
2018-12-05T13:34:12.463Z,85.60
2018-12-05T13:36:16.088Z,85.10
2018-12-05T13:38:19.446Z,86.50
2018-12-05T13:40:22.790Z,88.30
2018-12-05T13:42:26.265Z,87.10
2018-12-05T13:44:29.602Z,90.50
2018-12-05T13:48:36.824Z,85.70
2018-12-05T13:50:41.483Z,85.60
2018-12-05T13:52:44.818Z,84.80
2018-12-05T13:54:48.226Z,84.70
2018-12-05T13:56:53.119Z,90.50
2018-12-05T13:58:56.751Z,85.70
2018-12-05T14:01:00.046Z,86.20
2018-12-05T14:05:06.428Z,88.20
2018-12-05T14:07:12.646Z,88.60
2018-12-05T14:11:20.586Z,87.50
2018-12-05T14:13:23.751Z,89.90
2018-12-05T14:15:27.755Z,90.00
2018-12-05T14:17:32.345Z,90.90
2018-12-05T14:19:35.538Z,91.30
2018-12-05T14:21:39.123Z,93.40
2018-12-05T14:23:43.452Z,91.00
2018-12-05T14:25:46.794Z,93.00
2018-12-05T14:27:50.315Z,93.10
2018-12-05T14:31:56.723Z,96.00
2018-12-05T14:33:59.903Z,93.60
2018-12-05T14:36:03.155Z,93.80
2018-12-05T14:38:06.299Z,93.50
2018-12-05T14:40:10.072Z,93.80
2018-12-05T14:42:13.890Z,93.90
2018-12-05T14:44:17.248Z,94.80
2018-12-05T14:46:20.612Z,94.10
2018-12-05T14:48:23.822Z,96.10
2018-12-05T14:50:26.987Z,93.20
2018-12-05T14:52:30.622Z,96.80
2018-12-05T14:54:33.775Z,94.90
2018-12-05T14:56:36.916Z,94.60
2018-12-05T14:58:40.585Z,97.50
2018-12-05T15:00:44.403Z,93.80
2018-12-05T15:02:48.031Z,94.40
2018-12-05T15:04:51.617Z,96.40
2018-12-05T15:06:54.916Z,93.90
2018-12-05T15:08:58.063Z,96.20
2018-12-05T15:11:01.264Z,94.90
2018-12-05T15:13:04.771Z,94.80
2018-12-05T15:15:08.098Z,94.80
2018-12-05T15:17:12.383Z,95.00
2018-12-05T15:19:15.692Z,95.10
2018-12-05T15:23:22.239Z,95.40
2018-12-05T15:25:25.702Z,97.50
2018-12-05T15:27:28.947Z,95.40
2018-12-05T15:29:32.356Z,97.80
2018-12-05T15:31:35.488Z,98.00
2018-12-05T15:33:39.114Z,95.30
2018-12-05T15:37:47.073Z,95.50
2018-12-05T15:39:50.570Z,95.40
2018-12-05T15:41:53.814Z,97.60
2018-12-05T15:43:57.199Z,95.30
2018-12-05T15:46:00.358Z,95.30
2018-12-05T15:48:03.636Z,95.50
2018-12-05T15:52:10.411Z,95.40
2018-12-05T15:54:14.609Z,98.30
2018-12-05T15:56:17.847Z,97.10
2018-12-05T15:58:21.202Z,96.90
2018-12-05T16:00:24.491Z,95.20
2018-12-05T16:04:31.110Z,95.20
2018-12-05T16:06:34.315Z,95.40
2018-12-05T16:08:37.465Z,94.50
2018-12-05T16:10:43.111Z,95.50
2018-12-05T16:12:46.605Z,95.60
2018-12-05T16:14:49.975Z,95.50
2018-12-05T16:16:53.694Z,94.90
2018-12-05T16:18:58.522Z,95.90
2018-12-05T16:21:01.746Z,94.90
2018-12-05T16:23:04.909Z,95.30
2018-12-05T16:25:08.424Z,95.40
2018-12-05T16:27:12.597Z,95.10
2018-12-05T16:29:16.253Z,99.20
2018-12-05T16:31:19.708Z,94.90
2018-12-05T16:33:23.099Z,95.30
2018-12-05T16:35:26.439Z,95.40
2018-12-05T16:37:29.720Z,95.40
2018-12-05T16:41:35.856Z,95.00
2018-12-05T16:45:43.842Z,95.10
2018-12-05T16:47:47.335Z,95.30
2018-12-05T16:49:50.598Z,97.50
2018-12-05T16:51:53.855Z,95.20
2018-12-05T16:53:56.995Z,95.50
2018-12-05T16:56:00.234Z,96.70
2018-12-05T16:58:03.504Z,95.50
2018-12-05T17:00:09.134Z,95.70
2018-12-05T17:02:13.028Z,95.80
2018-12-05T17:04:16.439Z,95.90
2018-12-05T17:06:19.978Z,96.30
2018-12-05T17:08:23.415Z,95.80
2018-12-05T17:12:29.646Z,95.60
2018-12-05T17:14:32.818Z,98.20
2018-12-05T17:16:36.150Z,95.90
2018-12-05T17:20:43.312Z,96.00
2018-12-05T17:22:46.850Z,96.40
2018-12-05T17:24:50.191Z,96.30
2018-12-05T17:28:56.699Z,96.10
2018-12-05T17:30:59.959Z,96.20
2018-12-05T17:39:14.586Z,96.50
2018-12-05T17:41:17.958Z,96.40
2018-12-05T17:43:21.082Z,99.90
2018-12-05T17:47:27.294Z,99.90
2018-12-05T17:49:30.459Z,96.10
2018-12-05T17:53:36.525Z,95.90
2018-12-05T17:55:39.696Z,96.10
2018-12-05T17:57:43.977Z,96.10
2018-12-05T17:59:47.430Z,98.80
2018-12-05T18:01:50.681Z,95.80
2018-12-05T18:03:54.075Z,97.90
2018-12-05T18:05:57.214Z,95.90
2018-12-05T18:08:00.511Z,96.10
2018-12-05T18:12:07.846Z,95.80
2018-12-05T18:14:10.987Z,96.00
2018-12-05T18:16:14.757Z,95.80
2018-12-05T18:18:18.297Z,98.40
2018-12-05T18:20:21.551Z,99.90
2018-12-05T18:22:24.883Z,96.70
2018-12-05T18:24:28.114Z,95.70
2018-12-05T18:26:31.259Z,95.90
2018-12-05T18:28:34.810Z,95.70
2018-12-05T18:30:38.055Z,95.70
2018-12-05T18:32:41.209Z,95.90
2018-12-05T18:34:45.067Z,95.70
2018-12-05T18:36:49.295Z,97.10
2018-12-05T18:38:52.795Z,98.60
2018-12-05T18:42:59.411Z,96.00
2018-12-05T18:45:02.676Z,96.10
2018-12-05T18:47:06.275Z,96.20
2018-12-05T18:49:09.588Z,96.40
2018-12-05T18:53:16.641Z,98.70
2018-12-05T18:55:19.907Z,96.30
2018-12-05T18:57:23.203Z,99.50
2018-12-05T18:59:26.839Z,96.30
2018-12-05T19:01:30.115Z,96.40
2018-12-05T19:05:36.203Z,96.40
2018-12-05T19:09:42.759Z,96.80
2018-12-05T19:11:46.371Z,98.90
2018-12-05T19:13:54.961Z,98.80
2018-12-05T19:15:58.136Z,96.80
2018-12-05T19:18:01.312Z,96.50
2018-12-05T19:20:05.451Z,96.30
2018-12-05T19:22:08.631Z,96.30
2018-12-05T19:24:12.796Z,96.40
2018-12-05T19:26:17.281Z,97.80
2018-12-05T19:28:20.684Z,99.90
2018-12-05T19:30:25.271Z,96.40
2018-12-05T19:32:28.579Z,96.50
2018-12-05T19:34:31.819Z,96.20
2018-12-05T19:36:35.043Z,96.50
2018-12-05T19:40:42.024Z,96.40
2018-12-05T19:42:46.561Z,96.40
2018-12-05T19:44:49.924Z,99.50
2018-12-05T19:46:53.174Z,99.90
2018-12-05T19:48:56.359Z,96.40
2018-12-05T19:53:03.451Z,96.40
2018-12-05T19:55:07.552Z,96.30
2018-12-05T19:57:16.737Z,96.30
2018-12-05T19:59:20.750Z,96.80
2018-12-05T20:01:24.630Z,96.40
2018-12-05T20:03:27.794Z,97.60
2018-12-05T20:05:30.936Z,98.10
2018-12-05T20:07:34.191Z,96.20
2018-12-05T20:09:37.387Z,96.50
2018-12-05T20:11:42.168Z,96.60
2018-12-05T20:13:46.319Z,96.60
2018-12-05T20:15:49.919Z,97.10
2018-12-05T20:17:53.298Z,96.00
2018-12-05T20:19:56.495Z,96.50
2018-12-05T20:21:59.950Z,96.60
2018-12-05T20:24:03.198Z,96.70
2018-12-05T20:26:06.475Z,96.70
2018-12-05T20:28:09.708Z,96.90
2018-12-05T20:30:13.174Z,97.00
2018-12-05T20:32:17.641Z,96.90
2018-12-05T20:34:20.949Z,99.90
2018-12-05T20:36:24.277Z,97.00
2018-12-05T20:38:27.554Z,96.90
2018-12-05T20:40:30.703Z,97.00
2018-12-05T20:42:34.122Z,96.90
2018-12-05T20:46:40.223Z,96.60
2018-12-05T20:48:43.792Z,96.60
2018-12-05T20:54:53.500Z,99.20
2018-12-05T20:56:56.730Z,98.00
2018-12-05T20:58:59.951Z,96.70
2018-12-05T21:01:03.371Z,96.70
2018-12-05T21:05:09.694Z,96.60
2018-12-05T21:07:12.859Z,96.80
2018-12-05T21:09:16.511Z,96.50
2018-12-05T21:11:20.087Z,99.30
2018-12-05T21:13:24.992Z,97.80
2018-12-05T21:15:28.214Z,96.70
2018-12-05T21:17:31.552Z,97.80
2018-12-05T21:19:35.214Z,98.50
2018-12-05T21:21:38.379Z,96.40
2018-12-05T21:23:41.578Z,96.40
2018-12-05T21:25:46.378Z,96.60
2018-12-05T21:27:50.732Z,99.10
2018-12-05T21:29:53.964Z,99.90
2018-12-05T21:31:57.251Z,96.40
2018-12-05T21:34:00.551Z,96.70
2018-12-05T21:36:03.796Z,96.40
2018-12-05T21:38:06.934Z,96.40
2018-12-05T21:40:10.224Z,96.30
2018-12-05T21:42:14.103Z,96.30
2018-12-05T21:44:19.657Z,98.50
2018-12-05T21:46:22.979Z,97.60
2018-12-05T21:48:26.374Z,96.10
2018-12-05T21:50:29.535Z,96.00
2018-12-05T21:52:32.767Z,96.10
2018-12-05T21:54:36.059Z,96.10
2018-12-05T21:56:39.227Z,96.10
2018-12-05T21:58:42.387Z,95.90
2018-12-05T22:00:46.011Z,95.80
2018-12-05T22:02:49.355Z,96.00
2018-12-05T22:04:53.140Z,97.20
2018-12-05T22:06:56.392Z,96.20
2018-12-05T22:08:59.607Z,96.20
2018-12-05T22:11:02.767Z,96.30
2018-12-05T22:13:05.911Z,96.20
2018-12-05T22:15:09.335Z,96.20
2018-12-05T22:17:12.823Z,96.20
2018-12-05T22:19:16.640Z,96.30
2018-12-05T22:21:19.911Z,98.70
2018-12-05T22:23:23.211Z,97.00
2018-12-05T22:25:27.057Z,98.40
2018-12-05T22:27:30.223Z,95.80
2018-12-05T22:29:33.448Z,97.80
2018-12-05T22:33:39.494Z,96.50
2018-12-05T22:35:48.800Z,96.60
2018-12-05T22:37:52.204Z,96.70
2018-12-05T22:39:55.628Z,96.60
2018-12-05T22:41:58.931Z,96.80
2018-12-05T22:44:02.164Z,96.90
2018-12-05T22:46:05.803Z,97.10
2018-12-05T22:48:09.251Z,97.20
2018-12-05T22:50:12.408Z,97.20
2018-12-05T22:52:15.923Z,97.40
2018-12-05T22:54:19.417Z,97.80
2018-12-05T22:58:25.940Z,97.70
2018-12-05T23:00:29.373Z,99.60
2018-12-05T23:02:32.615Z,98.70
2018-12-05T23:04:36.003Z,97.80
2018-12-05T23:06:40.115Z,97.70
2018-12-05T23:08:43.283Z,99.90
2018-12-05T23:10:46.833Z,97.70
2018-12-05T23:12:50.540Z,98.00
2018-12-05T23:14:53.787Z,98.10
2018-12-05T23:16:57.407Z,97.80
2018-12-05T23:19:00.582Z,99.50
2018-12-05T23:21:03.876Z,98.30
2018-12-05T23:23:07.124Z,98.50
2018-12-05T23:27:13.366Z,98.30
2018-12-05T23:29:17.163Z,98.50
2018-12-05T23:31:31.288Z,98.50
2018-12-05T23:33:34.450Z,98.60
2018-12-05T23:35:37.594Z,98.80
2018-12-05T23:37:40.803Z,98.70
2018-12-05T23:41:47.428Z,98.80
2018-12-05T23:43:51.032Z,99.10
2018-12-05T23:45:54.287Z,99.00
2018-12-05T23:47:58.023Z,98.90
2018-12-05T23:50:01.207Z,99.90
2018-12-05T23:52:04.375Z,98.80
2018-12-05T23:54:07.606Z,98.80
2018-12-05T23:56:10.767Z,98.80
2018-12-05T23:58:13.963Z,99.10
